Time;durP1;ratioP1;P1;durP2;ratioP2;P2;SDS_P1;SDS_P2;PMS_P1;PMS_P2;Temp;Humidity;BMP_temperature;BMP_pressure;BME280_temperature;BME280_humidity;BME280_pressure;Samples;Min_cycle;Max_cycle;Signal;HPM_P1;HPM_P2
2022/07/15 00:00:44;;;;;;;39.08;36.95;;;20.20;72.60;;;;;;5021553;28;20179;-78
2022/07/15 00:03:10;;;;;;;29.23;27.48;;;20.10;72.10;;;;;;5022453;28;20187;-77
2022/07/15 00:05:36;;;;;;;21.77;20.58;;;20.00;72.10;;;;;;5022486;28;20202;-78
2022/07/15 00:08:02;;;;;;;9.50;8.90;;;19.80;72.60;;;;;;5021059;28;20714;-77
2022/07/15 00:10:28;;;;;;;24.13;22.92;;;19.70;73.40;;;;;;5025004;28;20222;-77
2022/07/15 00:12:57;;;;;;;17.60;16.75;;;19.60;75.00;;;;;;5022992;28;20219;-77
2022/07/15 00:15:25;;;;;;;11.30;10.70;;;19.70;75.60;;;;;;5020515;28;20212;-77
2022/07/15 00:17:51;;;;;;;6.47;6.03;;;19.60;75.50;;;;;;5020591;28;20184;-77
2022/07/15 00:20:19;;;;;;;7.18;6.53;;;19.60;75.80;;;;;;5022277;28;20250;-77
2022/07/15 00:22:46;;;;;;;16.30;15.40;;;19.50;75.80;;;;;;5021012;28;20191;-76
2022/07/15 00:25:13;;;;;;;19.65;18.50;;;19.40;76.60;;;;;;5025484;28;20200;-76
2022/07/15 00:27:57;;;;;;;15.37;14.37;;;19.30;77.50;;;;;;5023111;28;20211;-78
2022/07/15 00:30:28;;;;;;;8.13;7.53;;;19.20;77.30;;;;;;5029604;28;20243;-77
2022/07/15 00:32:55;;;;;;;7.07;6.53;;;19.00;78.60;;;;;;5025127;28;20190;-77
2022/07/15 00:35:20;;;;;;;12.17;11.47;;;18.80;79.40;;;;;;5020299;28;20207;-77
2022/07/15 00:37:46;;;;;;;14.80;13.40;;;18.70;80.20;;;;;;5022419;28;20184;-77
2022/07/15 00:40:12;;;;;;;18.83;17.80;;;18.60;81.10;;;;;;5021674;28;20186;-76
2022/07/15 00:42:44;;;;;;;17.30;16.30;;;18.40;81.70;;;;;;5024678;28;20179;-77
2022/07/15 00:45:15;;;;;;;11.27;10.57;;;18.30;82.30;;;;;;5025490;28;20206;-77
2022/07/15 00:47:45;;;;;;;16.57;15.70;;;18.10;82.90;;;;;;5018859;28;20585;-77
2022/07/15 00:50:12;;;;;;;66.23;62.83;;;18.10;84.30;;;;;;5020109;28;20199;-77
2022/07/15 00:52:40;;;;;;;88.00;83.60;;;18.20;84.20;;;;;;5020725;28;20198;-76
2022/07/15 00:55:10;;;;;;;85.43;81.13;;;18.10;83.80;;;;;;5021414;28;20200;-77
2022/07/15 00:57:42;;;;;;;77.50;73.63;;;18.10;83.90;;;;;;5023865;28;20595;-77
2022/07/15 01:00:13;;;;;;;25.37;23.93;;;18.00;85.20;;;;;;5020142;28;20676;-78
2022/07/15 01:02:50;;;;;;;11.83;11.13;;;18.00;86.40;;;;;;5020266;28;20191;-77
2022/07/15 01:05:16;;;;;;;10.77;9.90;;;18.00;86.20;;;;;;5020484;28;20572;-77
2022/07/15 01:07:43;;;;;;;8.53;7.73;;;18.00;85.50;;;;;;5017843;28;20538;-78
2022/07/15 01:10:08;;;;;;;7.13;6.63;;;17.80;86.40;;;;;;5019013;28;20175;-78
2022/07/15 01:12:40;;;;;;;17.93;16.83;;;17.70;86.70;;;;;;5020354;28;20180;-77
2022/07/15 01:15:07;;;;;;;44.87;42.50;;;17.70;87.80;;;;;;5018992;28;20212;-78
2022/07/15 01:17:32;;;;;;;65.10;61.80;;;17.50;89.00;;;;;;5020355;28;20176;-78
2022/07/15 01:19:59;;;;;;;97.10;92.33;;;17.40;89.10;;;;;;5020270;28;20191;-78
2022/07/15 01:22:25;;;;;;;109.87;104.50;;;17.30;89.90;;;;;;5019766;28;20194;-77
2022/07/15 01:24:52;;;;;;;102.27;97.27;;;17.30;90.10;;;;;;5013096;28;20199;-74
2022/07/15 01:27:18;;;;;;;54.90;52.07;;;17.20;90.30;;;;;;5009512;28;20253;-74
2022/07/15 01:29:44;;;;;;;76.63;72.80;;;17.10;90.70;;;;;;5011288;28;20188;-74
2022/07/15 01:32:09;;;;;;;90.10;85.53;;;17.00;90.70;;;;;;5011405;28;20551;-74
2022/07/15 01:34:35;;;;;;;74.63;70.73;;;17.00;90.40;;;;;;5012974;28;20285;-74
2022/07/15 01:37:01;;;;;;;84.10;79.73;;;16.90;90.60;;;;;;5011549;28;20202;-74
2022/07/15 01:39:27;;;;;;;103.93;98.83;;;16.90;90.50;;;;;;5010844;28;20183;-74
2022/07/15 01:41:54;;;;;;;110.03;104.53;;;16.90;90.40;;;;;;5011135;28;20274;-74
2022/07/15 01:44:21;;;;;;;73.57;69.53;;;16.90;90.40;;;;;;5011650;28;20197;-74
2022/07/15 01:46:47;;;;;;;62.50;59.13;;;16.80;91.10;;;;;;5011982;28;20236;-74
2022/07/15 01:49:22;;;;;;;42.13;39.93;;;16.80;91.10;;;;;;5015413;28;20222;-74
2022/07/15 01:51:48;;;;;;;52.03;49.17;;;16.90;91.30;;;;;;5015056;28;20666;-74
2022/07/15 01:54:14;;;;;;;34.27;32.33;;;16.90;91.00;;;;;;5015323;28;20270;-74
2022/07/15 01:56:40;;;;;;;32.50;30.77;;;16.90;91.30;;;;;;5015897;28;20179;-74
2022/07/15 01:59:06;;;;;;;18.93;17.97;;;16.80;91.70;;;;;;5014778;28;20191;-74
2022/07/15 02:01:32;;;;;;;74.90;71.10;;;16.50;92.30;;;;;;5015341;28;20702;-73
2022/07/15 02:03:59;;;;;;;116.00;109.97;;;16.30;93.10;;;;;;5014115;28;20188;-74
2022/07/15 02:06:25;;;;;;;60.77;57.67;;;16.20;93.70;;;;;;5013984;28;20207;-74
2022/07/15 02:08:51;;;;;;;20.50;19.43;;;16.20;94.40;;;;;;5014071;28;20180;-74
2022/07/15 02:11:16;;;;;;;18.90;17.77;;;16.20;94.80;;;;;;5015247;28;20206;-74
2022/07/15 02:13:42;;;;;;;17.87;16.90;;;16.10;95.30;;;;;;5014950;28;20180;-74
2022/07/15 02:16:08;;;;;;;24.93;23.50;;;15.90;96.10;;;;;;5036541;23;20231;-72
2022/07/15 02:18:34;;;;;;;19.63;18.63;;;15.60;97.40;;;;;;5027876;28;20190;-71
2022/07/15 02:21:02;;;;;;;20.73;19.53;;;15.60;98.60;;;;;;5034748;28;20221;-71
2022/07/15 02:23:28;;;;;;;19.97;18.83;;;15.60;99.70;;;;;;5034689;28;20189;-71
2022/07/15 02:25:54;;;;;;;18.93;17.67;;;15.70;99.90;;;;;;5033437;28;20207;-72
2022/07/15 02:28:20;;;;;;;18.50;17.27;;;15.60;99.90;;;;;;5024096;28;20672;-72
2022/07/15 02:30:46;;;;;;;14.37;13.57;;;15.50;99.90;;;;;;5013771;28;20267;-72
2022/07/15 02:33:13;;;;;;;12.60;11.80;;;15.50;99.90;;;;;;5014617;28;20180;-72
2022/07/15 02:35:41;;;;;;;15.87;14.70;;;15.50;99.90;;;;;;5014845;28;20211;-72
2022/07/15 02:38:07;;;;;;;12.30;11.57;;;15.40;99.90;;;;;;5013696;28;20679;-72
2022/07/15 02:40:34;;;;;;;96.50;91.03;;;15.40;99.90;;;;;;5014639;28;20272;-72
2022/07/15 02:43:01;;;;;;;27.60;26.20;;;15.40;99.90;;;;;;5014525;28;20179;-72
2022/07/15 02:45:30;;;;;;;78.70;74.57;;;15.50;99.90;;;;;;5014603;28;20211;-72
2022/07/15 02:47:56;;;;;;;100.17;95.03;;;15.40;99.90;;;;;;5013554;28;20225;-70
2022/07/15 02:50:22;;;;;;;154.80;146.87;;;15.30;99.90;;;;;;5022529;28;20178;-70
2022/07/15 02:52:48;;;;;;;155.80;147.10;;;15.20;99.90;;;;;;5034179;28;20258;-70
2022/07/15 02:55:15;;;;;;;107.77;102.17;;;15.10;99.90;;;;;;5034103;28;20229;-70
2022/07/15 02:57:41;;;;;;;125.03;118.90;;;14.90;99.90;;;;;;5033150;28;20186;-70
2022/07/15 03:00:11;;;;;;;35.53;33.43;;;14.80;99.90;;;;;;5034055;28;20186;-70
2022/07/15 03:02:38;;;;;;;24.90;23.33;;;14.70;99.90;;;;;;5033806;28;20187;-70
2022/07/15 03:05:05;;;;;;;14.20;13.37;;;14.80;99.90;;;;;;5019443;28;20196;-71
2022/07/15 03:07:31;;;;;;;15.80;14.53;;;14.80;99.90;;;;;;5018682;28;20221;-71
2022/07/15 03:09:57;;;;;;;30.23;28.63;;;14.90;99.90;;;;;;5013360;28;20275;-71
2022/07/15 03:12:23;;;;;;;20.20;19.17;;;14.80;99.90;;;;;;5014581;28;20180;-70
2022/07/15 03:14:49;;;;;;;21.57;20.43;;;14.70;99.90;;;;;;5014163;28;20297;-70
2022/07/15 03:17:15;;;;;;;19.07;17.97;;;14.70;99.90;;;;;;5013290;28;20192;-71
2022/07/15 03:19:42;;;;;;;31.47;29.17;;;14.70;99.90;;;;;;5019203;28;20174;-70
2022/07/15 03:22:08;;;;;;;20.20;19.10;;;14.70;99.90;;;;;;5033688;28;20206;-72
2022/07/15 03:24:34;;;;;;;21.30;20.00;;;14.70;99.90;;;;;;5033438;28;20221;-70
2022/07/15 03:27:01;;;;;;;21.57;19.90;;;14.70;99.90;;;;;;5032748;28;20214;-70
2022/07/15 03:29:28;;;;;;;23.80;22.47;;;14.70;99.90;;;;;;5032265;28;20210;-70
2022/07/15 03:31:55;;;;;;;21.27;19.87;;;14.70;99.90;;;;;;5033285;28;20919;-70
2022/07/15 03:34:21;;;;;;;25.73;24.40;;;14.70;99.90;;;;;;5018782;28;20513;-71
2022/07/15 03:36:47;;;;;;;24.20;22.77;;;14.60;99.90;;;;;;5012680;28;20211;-70
2022/07/15 03:39:13;;;;;;;28.60;27.10;;;14.60;99.90;;;;;;5012789;28;20187;-70
2022/07/15 03:41:40;;;;;;;27.27;25.80;;;14.50;99.90;;;;;;5012715;28;20191;-70
2022/07/15 03:44:06;;;;;;;35.37;33.50;;;14.40;99.90;;;;;;5013591;28;20205;-71
2022/07/15 03:46:33;;;;;;;21.03;19.83;;;14.30;99.90;;;;;;5015433;28;20221;-71
2022/07/15 03:48:59;;;;;;;38.97;36.83;;;14.40;99.90;;;;;;5029034;28;20206;-70
2022/07/15 03:51:25;;;;;;;52.97;50.17;;;14.60;99.90;;;;;;5031893;28;20265;-70
2022/07/15 03:53:51;;;;;;;23.17;21.73;;;14.50;99.90;;;;;;5032943;28;20737;-70
2022/07/15 03:56:17;;;;;;;25.07;23.37;;;14.60;99.90;;;;;;5015983;28;20212;-70
2022/07/15 03:58:46;;;;;;;19.37;18.20;;;14.60;99.90;;;;;;5012215;28;20183;-70
2022/07/15 04:01:12;;;;;;;18.07;17.00;;;14.50;99.90;;;;;;5013891;28;20278;-70
2022/07/15 04:03:38;;;;;;;27.77;25.80;;;14.50;99.90;;;;;;5011995;28;20263;-70
2022/07/15 04:06:04;;;;;;;29.73;28.03;;;14.60;99.90;;;;;;5004318;28;20215;-70
2022/07/15 04:08:29;;;;;;;140.20;133.30;;;14.60;99.90;;;;;;5008511;28;20306;-72
2022/07/15 04:10:56;;;;;;;125.67;119.33;;;14.80;99.90;;;;;;5027385;28;20277;-70
2022/07/15 04:13:22;;;;;;;204.80;194.50;;;14.80;99.90;;;;;;5032373;28;20552;-71
2022/07/15 04:15:48;;;;;;;157.53;149.10;;;14.90;99.90;;;;;;5030325;28;20210;-72
2022/07/15 04:18:14;;;;;;;63.47;60.13;;;15.00;99.90;;;;;;5023467;28;20274;-70
2022/07/15 04:20:40;;;;;;;25.20;23.80;;;15.10;99.90;;;;;;5016765;28;20183;-70
2022/07/15 04:23:06;;;;;;;32.77;30.93;;;15.20;99.90;;;;;;5024621;28;20229;-70
2022/07/15 04:25:32;;;;;;;50.90;47.90;;;15.30;99.90;;;;;;5031061;28;20690;-70
2022/07/15 04:27:57;;;;;;;57.47;54.37;;;15.40;99.90;;;;;;5031015;28;20207;-71
2022/07/15 04:30:23;;;;;;;20.53;18.97;;;15.50;99.90;;;;;;5031813;28;20217;-71
2022/07/15 04:32:50;;;;;;;13.40;12.20;;;15.60;99.90;;;;;;5022885;28;20180;-71
2022/07/15 04:35:16;;;;;;;8.67;8.17;;;15.60;99.90;;;;;;5010864;28;20556;-70
2022/07/15 04:37:42;;;;;;;7.20;5.00;;;15.70;99.90;;;;;;5010486;28;20187;-69
2022/07/15 04:40:11;;;;;;;6.43;5.93;;;15.70;99.90;;;;;;5011447;28;20179;-69
2022/07/15 04:42:37;;;;;;;6.20;5.73;;;15.80;99.90;;;;;;5012088;28;20191;-70
2022/07/15 04:45:03;;;;;;;7.03;6.53;;;15.90;99.90;;;;;;5012265;28;20574;-70
2022/07/15 04:47:29;;;;;;;8.87;8.07;;;15.90;99.90;;;;;;5026346;28;20226;-73
2022/07/15 04:52:54;;;;;;;10.37;9.30;;;16.00;99.90;;;;;;5008162;28;20194;-71
2022/07/15 04:55:19;;;;;;;11.63;9.87;;;16.10;99.90;;;;;;5030667;28;20740;-71
2022/07/15 04:57:46;;;;;;;9.70;8.83;;;16.10;99.90;;;;;;5029215;28;20280;-71
2022/07/15 05:00:12;;;;;;;9.20;8.50;;;16.30;99.90;;;;;;5027655;28;20266;-71
2022/07/15 05:02:39;;;;;;;16.43;15.03;;;16.50;99.90;;;;;;5029710;28;20600;-71
2022/07/15 05:05:07;;;;;;;22.80;21.37;;;16.70;99.90;;;;;;5030570;28;20232;-72
2022/07/15 05:07:33;;;;;;;29.17;27.53;;;16.90;99.90;;;;;;5028933;28;20231;-71
2022/07/15 05:09:59;;;;;;;23.07;21.93;;;17.10;99.90;;;;;;5030651;28;20258;-71
2022/07/15 05:12:25;;;;;;;43.57;41.13;;;17.40;99.90;;;;;;5031243;28;20554;-72
2022/07/15 05:14:51;;;;;;;9.67;9.10;;;17.80;99.90;;;;;;5012597;28;20688;-71
2022/07/15 05:17:17;;;;;;;42.87;40.37;;;18.20;99.90;;;;;;5010993;28;20207;-70
2022/07/15 05:19:43;;;;;;;21.87;20.80;;;18.70;99.90;;;;;;5011392;28;20566;-71
2022/07/15 05:22:10;;;;;;;6.87;6.20;;;19.10;99.90;;;;;;5010736;28;20622;-71
2022/07/15 05:24:39;;;;;;;7.77;7.07;;;19.50;99.90;;;;;;5012034;28;20187;-71
2022/07/15 05:27:04;;;;;;;8.00;7.30;;;19.80;99.90;;;;;;5016953;28;20208;-71
2022/07/15 05:29:31;;;;;;;19.52;18.45;;;20.10;99.90;;;;;;5014246;28;20306;-71
2022/07/15 05:31:56;;;;;;;14.68;13.73;;;20.40;99.90;;;;;;5010321;28;20609;-71
2022/07/15 05:34:23;;;;;;;9.73;8.95;;;20.70;99.90;;;;;;5011554;28;20226;-75
2022/07/15 05:36:49;;;;;;;4.97;4.22;;;21.00;99.90;;;;;;5009752;28;20695;-75
2022/07/15 05:39:15;;;;;;;9.38;8.73;;;21.40;99.90;;;;;;5012595;28;20303;-76
2022/07/15 05:41:40;;;;;;;13.25;12.65;;;21.80;98.90;;;;;;5025375;28;20210;-75
2022/07/15 05:44:07;;;;;;;14.23;13.15;;;22.10;98.00;;;;;;5030643;28;20206;-75
2022/07/15 05:46:32;;;;;;;7.30;6.75;;;22.50;97.00;;;;;;5029668;28;20206;-75
2022/07/15 05:48:58;;;;;;;6.32;5.90;;;22.70;95.40;;;;;;5030109;28;20219;-76
2022/07/15 05:51:24;;;;;;;17.33;16.10;;;23.00;94.90;;;;;;5029908;28;20204;-75
2022/07/15 05:53:49;;;;;;;14.52;13.63;;;23.30;93.50;;;;;;5030171;28;20253;-75
2022/07/15 05:56:16;;;;;;;5.85;5.18;;;23.70;92.70;;;;;;5008565;28;20203;-74
2022/07/15 05:58:42;;;;;;;7.00;6.50;;;24.10;91.30;;;;;;5011761;28;20211;-74
2022/07/15 06:01:07;;;;;;;8.82;7.18;;;24.40;88.80;;;;;;5019383;28;20183;-74
2022/07/15 06:03:34;;;;;;;8.18;7.43;;;24.30;87.70;;;;;;5030902;28;20175;-74
2022/07/15 06:06:03;;;;;;;7.50;6.90;;;24.60;86.10;;;;;;5031074;28;20221;-74
2022/07/15 06:08:29;;;;;;;6.50;6.00;;;24.70;85.30;;;;;;5029252;28;20207;-75
2022/07/15 06:10:56;;;;;;;6.95;6.28;;;25.00;83.60;;;;;;5028235;28;20182;-75
2022/07/15 06:13:22;;;;;;;5.75;5.35;;;25.10;80.20;;;;;;5030514;28;20197;-75
2022/07/15 06:15:48;;;;;;;7.65;5.05;;;25.10;80.40;;;;;;5029908;28;20214;-74
2022/07/15 06:18:14;;;;;;;5.32;4.90;;;24.90;76.90;;;;;;5028780;28;20190;-74
2022/07/15 06:20:40;;;;;;;6.85;6.45;;;24.70;78.30;;;;;;5030386;28;20233;-74
2022/07/15 06:23:06;;;;;;;7.40;5.32;;;25.20;77.30;;;;;;5010975;28;20179;-74
2022/07/15 06:25:32;;;;;;;6.68;6.20;;;25.50;74.50;;;;;;5009927;28;20203;-74
2022/07/15 06:27:59;;;;;;;5.60;5.25;;;25.80;74.30;;;;;;5008331;28;20212;-75
2022/07/15 06:30:25;;;;;;;5.55;5.00;;;25.90;73.60;;;;;;5010375;28;20206;-76
2022/07/15 06:32:52;;;;;;;6.00;4.03;;;26.20;73.60;;;;;;5010156;28;20180;-75
2022/07/15 06:35:18;;;;;;;4.25;3.92;;;26.30;72.60;;;;;;5020543;28;20739;-75
2022/07/15 06:37:43;;;;;;;5.57;5.15;;;26.70;72.90;;;;;;5032700;28;20194;-75
2022/07/15 06:40:10;;;;;;;7.05;6.45;;;26.90;68.90;;;;;;5033234;28;20268;-74
2022/07/15 06:42:37;;;;;;;6.47;5.88;;;26.90;67.60;;;;;;5034778;28;20751;-76
2022/07/15 06:45:05;;;;;;;9.50;9.00;;;26.90;68.50;;;;;;5032657;28;20207;-79
2022/07/15 06:47:31;;;;;;;14.52;13.48;;;27.10;66.00;;;;;;5032763;28;20229;-76
2022/07/15 06:49:59;;;;;;;12.45;11.70;;;27.40;64.30;;;;;;5029137;28;20186;-76
2022/07/15 06:52:25;;;;;;;11.85;11.07;;;27.50;65.10;;;;;;5016113;28;20184;-77
2022/07/15 06:54:53;;;;;;;12.43;11.50;;;27.50;62.20;;;;;;5012953;28;20234;-75
2022/07/15 06:57:19;;;;;;;11.27;10.52;;;27.30;63.40;;;;;;5028382;28;20187;-75
2022/07/15 06:59:45;;;;;;;16.00;14.82;;;27.60;63.20;;;;;;5029624;28;20188;-75
2022/07/15 07:02:11;;;;;;;20.40;19.00;;;27.90;62.80;;;;;;5014295;28;20636;-74
2022/07/15 07:04:37;;;;;;;17.35;16.05;;;28.20;59.50;;;;;;5022440;28;20193;-75
2022/07/15 07:07:03;;;;;;;13.43;12.63;;;28.00;60.70;;;;;;5018320;28;20220;-75
2022/07/15 07:09:29;;;;;;;15.45;14.40;;;27.70;59.90;;;;;;5012311;28;20405;-76
2022/07/15 07:11:54;;;;;;;20.67;19.27;;;27.50;62.10;;;;;;5013752;28;20579;-76
2022/07/15 07:14:20;;;;;;;29.95;27.92;;;28.00;61.70;;;;;;5029475;28;20277;-75
2022/07/15 07:16:46;;;;;;;31.60;29.83;;;28.50;59.80;;;;;;5031676;28;20214;-75
2022/07/15 07:19:13;;;;;;;31.90;30.17;;;28.60;59.10;;;;;;5032032;28;20179;-76
2022/07/15 07:21:39;;;;;;;50.95;48.20;;;28.90;60.20;;;;;;5031163;28;20172;-77
2022/07/15 07:24:07;;;;;;;29.35;27.77;;;29.00;57.30;;;;;;5033215;28;20210;-76
2022/07/15 07:26:34;;;;;;;32.20;30.25;;;28.30;57.60;;;;;;5031838;28;20207;-76
2022/07/15 07:29:00;;;;;;;34.95;32.95;;;28.30;59.00;;;;;;5030932;28;20648;-75
2022/07/15 07:31:26;;;;;;;33.13;31.30;;;28.40;57.60;;;;;;5031393;28;20273;-71
2022/07/15 07:33:56;;;;;;;32.05;30.23;;;28.60;57.40;;;;;;5032610;28;20183;-71
2022/07/15 07:36:23;;;;;;;19.98;18.48;;;28.50;59.30;;;;;;5018949;28;20203;-69
2022/07/15 07:38:49;;;;;;;16.60;15.63;;;28.10;57.90;;;;;;5011797;28;20183;-72
2022/07/15 07:41:16;;;;;;;270.63;257.40;;;28.20;60.10;;;;;;5011903;28;20426;-70
2022/07/15 07:43:42;;;;;;;44.40;42.08;;;28.40;57.30;;;;;;5019955;28;20275;-69
2022/07/15 07:46:08;;;;;;;25.15;23.90;;;28.00;58.00;;;;;;5032387;28;20298;-69
2022/07/15 07:48:35;;;;;;;14.65;13.95;;;27.50;58.90;;;;;;5031715;28;20322;-70
2022/07/15 07:51:00;;;;;;;7.53;7.13;;;27.40;59.60;;;;;;5032247;28;20659;-70
2022/07/15 07:53:26;;;;;;;5.18;4.70;;;27.20;61.00;;;;;;5032648;28;20198;-69
2022/07/15 07:55:52;;;;;;;5.70;5.30;;;27.00;62.60;;;;;;5027399;28;20847;-72
2022/07/15 07:58:20;;;;;;;8.82;4.82;;;26.90;60.20;;;;;;5027462;28;20187;-72
2022/07/15 08:00:46;;;;;;;5.57;4.88;;;27.00;60.40;;;;;;5031770;28;20179;-73
2022/07/15 08:03:12;;;;;;;4.68;4.22;;;26.90;65.90;;;;;;5031317;28;20694;-73
2022/07/15 08:05:38;;;;;;;5.57;5.13;;;27.00;62.10;;;;;;5032995;28;20750;-72
2022/07/15 08:08:16;;;;;;;5.35;4.95;;;27.00;60.00;;;;;;5031775;28;20257;-74
2022/07/15 08:10:44;;;;;;;5.13;4.50;;;27.30;63.80;;;;;;5025463;28;20176;-72
2022/07/15 08:13:11;;;;;;;4.53;4.22;;;27.40;62.50;;;;;;5012929;28;20180;-73
2022/07/15 08:15:37;;;;;;;6.65;4.57;;;27.60;58.50;;;;;;5039722;22;20321;-74
2022/07/15 08:18:03;;;;;;;5.25;4.85;;;27.70;57.90;;;;;;5026676;28;20653;-75
2022/07/15 08:20:30;;;;;;;4.35;3.90;;;27.50;57.80;;;;;;5032041;28;20194;-74
2022/07/15 08:23:01;;;;;;;4.43;4.13;;;27.60;59.60;;;;;;5014274;28;20183;-75
2022/07/15 08:25:32;;;;;;;7.43;4.72;;;27.60;59.80;;;;;;5025637;28;20209;-74
2022/07/15 08:27:59;;;;;;;4.88;3.72;;;27.60;58.70;;;;;;4993520;28;20295;-75
2022/07/15 08:30:27;;;;;;;5.70;5.30;;;27.40;58.20;;;;;;5012146;28;20179;-75
2022/07/15 08:32:54;;;;;;;5.90;4.50;;;27.40;57.90;;;;;;4981476;28;20231;-76
2022/07/15 08:35:20;;;;;;;5.00;4.20;;;27.30;58.90;;;;;;5001009;28;20203;-76
2022/07/15 08:37:46;;;;;;;6.13;5.53;;;27.40;58.70;;;;;;5009720;28;20279;-76
2022/07/15 08:40:12;;;;;;;6.80;6.20;;;27.50;57.00;;;;;;5011879;28;20183;-76
2022/07/15 08:42:41;;;;;;;6.15;5.53;;;27.40;56.30;;;;;;5011498;28;20266;-76
2022/07/15 08:45:08;;;;;;;5.00;4.72;;;27.50;57.40;;;;;;4990633;28;20180;-77
2022/07/15 08:47:38;;;;;;;8.95;8.38;;;27.70;57.00;;;;;;5012289;28;20229;-77
2022/07/15 08:50:05;;;;;;;10.80;10.25;;;27.90;55.60;;;;;;5011550;28;20206;-77
2022/07/15 08:52:33;;;;;;;14.95;13.95;;;28.30;55.00;;;;;;5011328;28;20192;-76
2022/07/15 08:55:00;;;;;;;20.27;18.98;;;28.50;53.90;;;;;;5017726;28;20221;-77
2022/07/15 08:57:26;;;;;;;26.42;24.85;;;28.50;53.60;;;;;;5013957;28;20602;-76
2022/07/15 08:59:52;;;;;;;36.03;34.28;;;28.60;52.70;;;;;;5017779;28;20266;-76
2022/07/15 09:02:22;;;;;;;39.58;37.60;;;28.70;53.10;;;;;;4994452;28;20265;-77
2022/07/15 09:05:17;;;;;;;35.03;32.97;;;28.70;52.30;;;;;;5012215;28;20612;-77
2022/07/15 09:07:58;;;;;;;30.42;28.63;;;28.80;55.80;;;;;;4992505;28;20243;-77
2022/07/15 09:10:41;;;;;;;57.17;54.25;;;29.00;55.50;;;;;;5013019;28;20214;-77
2022/07/15 09:13:06;;;;;;;36.45;34.63;;;29.20;52.60;;;;;;4996359;28;20184;-77
2022/07/15 09:15:34;;;;;;;91.38;86.60;;;29.30;53.40;;;;;;5007764;28;20219;-77
2022/07/15 09:18:19;;;;;;;77.85;73.97;;;29.30;50.90;;;;;;4993677;28;20675;-76
2022/07/15 09:20:46;;;;;;;64.55;61.42;;;29.10;53.40;;;;;;4995832;28;20195;-77
2022/07/15 09:23:20;;;;;;;72.55;68.97;;;29.10;53.80;;;;;;4977075;28;20559;-79
2022/07/15 09:25:51;;;;;;;62.05;58.95;;;29.40;53.70;;;;;;4997067;28;20218;-78
2022/07/15 09:28:17;;;;;;;117.18;111.53;;;29.80;54.20;;;;;;4996246;28;20208;-76
2022/07/15 09:33:39;;;;;;;114.88;109.40;;;30.00;51.00;;;;;;5031383;28;20183;-77
2022/07/15 09:36:11;;;;;;;114.40;108.72;;;29.50;52.50;;;;;;5021330;28;20269;-79
2022/07/15 09:38:40;;;;;;;117.70;111.82;;;29.40;51.70;;;;;;4995317;28;20195;-79
2022/07/15 09:41:27;;;;;;;113.65;108.13;;;29.20;52.10;;;;;;5016125;28;20191;-76
2022/07/15 09:43:52;;;;;;;50.30;47.63;;;28.90;52.10;;;;;;5006235;28;20571;-79
2022/07/15 09:46:24;;;;;;;49.28;46.83;;;28.60;52.80;;;;;;5000827;28;20200;-76
2022/07/15 09:48:52;;;;;;;49.35;46.85;;;28.90;53.60;;;;;;5002424;28;20212;-76
2022/07/15 09:51:19;;;;;;;46.75;44.10;;;28.90;52.90;;;;;;4985077;28;20591;-77
2022/07/15 09:53:46;;;;;;;36.05;34.22;;;29.10;53.60;;;;;;4999526;28;20245;-77
2022/07/15 09:56:16;;;;;;;97.15;91.97;;;29.40;53.30;;;;;;4985232;28;20696;-76
2022/07/15 09:58:43;;;;;;;115.13;108.95;;;29.60;51.10;;;;;;5018161;28;20403;-77
2022/07/15 10:01:11;;;;;;;134.50;127.93;;;29.90;50.50;;;;;;5024934;28;20179;-76
2022/07/15 10:03:37;;;;;;;136.90;130.30;;;30.30;50.30;;;;;;5027857;28;20183;-77
2022/07/15 10:06:05;;;;;;;116.82;111.18;;;30.40;51.00;;;;;;4995630;28;20203;-78
2022/07/15 10:08:32;;;;;;;120.75;114.78;;;30.00;50.60;;;;;;4997539;28;20813;-78
2022/07/15 10:10:58;;;;;;;112.95;107.55;;;29.60;50.40;;;;;;5004985;28;20207;-78
2022/07/15 10:13:36;;;;;;;104.15;99.18;;;29.40;50.80;;;;;;4989181;28;20551;-77
2022/07/15 10:16:23;;;;;;;114.15;108.70;;;29.20;51.30;;;;;;4988537;28;20215;-78
2022/07/15 10:19:24;;;;;;;118.78;112.72;;;29.50;50.50;;;;;;4980280;28;20238;-78
2022/07/15 10:22:15;;;;;;;127.70;121.35;;;30.30;50.80;;;;;;4976489;28;20731;-78
2022/07/15 10:25:00;;;;;;;146.48;139.18;;;30.50;49.50;;;;;;4981672;28;20208;-81
2022/07/15 10:27:35;;;;;;;159.48;151.73;;;30.60;50.40;;;;;;4977925;28;20219;-76
2022/07/15 10:30:07;;;;;;;165.23;157.07;;;30.90;48.10;;;;;;4997560;28;20191;-77
2022/07/15 10:33:13;;;;;;;152.80;145.43;;;31.00;48.80;;;;;;5037580;28;20179;-78
2022/07/15 10:35:50;;;;;;;139.82;133.05;;;31.50;48.20;;;;;;5027742;28;20194;-78
2022/07/15 10:38:21;;;;;;;147.23;140.07;;;31.70;47.70;;;;;;5003116;28;20282;-79
2022/07/15 10:40:56;;;;;;;150.13;142.82;;;31.30;47.40;;;;;;5015184;28;20235;-79
2022/07/15 10:43:42;;;;;;;159.27;150.85;;;30.30;48.10;;;;;;5006370;28;20561;-79
2022/07/15 10:46:29;;;;;;;143.27;136.27;;;29.20;49.40;;;;;;4979367;28;20219;-79
2022/07/15 10:49:14;;;;;;;98.05;92.80;;;28.50;50.90;;;;;;4995797;28;20270;-80
2022/07/15 10:51:41;;;;;;;102.72;97.68;;;28.90;52.00;;;;;;4993259;28;20852;-79
2022/07/15 10:54:17;;;;;;;130.90;124.60;;;29.20;51.00;;;;;;5013299;28;20183;-74
2022/07/15 10:56:47;;;;;;;116.47;110.82;;;29.40;49.70;;;;;;5013111;28;20202;-75
2022/07/15 10:59:21;;;;;;;103.10;97.93;;;29.50;50.60;;;;;;5012272;28;20176;-74
2022/07/15 11:01:49;;;;;;;111.43;106.00;;;29.20;51.40;;;;;;5013390;28;20661;-74
2022/07/15 11:04:18;;;;;;;113.18;107.53;;;29.60;50.30;;;;;;4992361;28;20179;-74
2022/07/15 11:07:02;;;;;;;130.00;123.63;;;29.90;50.10;;;;;;4993602;28;20243;-74
2022/07/15 11:09:46;;;;;;;146.00;138.80;;;30.10;49.70;;;;;;4975905;28;20183;-75
2022/07/15 11:12:22;;;;;;;154.73;147.18;;;30.30;47.90;;;;;;4994065;28;20271;-74
2022/07/15 11:15:02;;;;;;;171.80;163.40;;;30.20;47.80;;;;;;4975621;28;20191;-75
2022/07/15 11:17:28;;;;;;;159.43;151.65;;;30.40;47.70;;;;;;4996144;28;20776;-74
2022/07/15 11:19:59;;;;;;;174.57;165.95;;;30.60;50.70;;;;;;5011894;28;20207;-75
2022/07/15 11:22:27;;;;;;;156.85;148.95;;;31.00;47.60;;;;;;5011993;28;20180;-75
2022/07/15 11:24:54;;;;;;;173.77;165.38;;;30.60;48.40;;;;;;5013217;28;20552;-75
2022/07/15 11:27:22;;;;;;;156.85;149.23;;;30.70;48.50;;;;;;5013500;28;20207;-80
2022/07/15 11:29:59;;;;;;;153.05;145.35;;;30.50;47.40;;;;;;4999542;28;20241;-79
2022/07/15 11:32:26;;;;;;;156.15;148.35;;;30.20;48.20;;;;;;4987149;28;20616;-80
2022/07/15 11:34:54;;;;;;;146.55;139.35;;;30.50;48.10;;;;;;4996681;28;20188;-78
2022/07/15 11:37:27;;;;;;;172.48;163.60;;;30.80;47.90;;;;;;4994091;28;20321;-77
2022/07/15 11:40:07;;;;;;;165.43;157.10;;;31.30;46.60;;;;;;5017239;28;20838;-80
2022/07/15 11:45:37;;;;;;;176.60;167.75;;;31.50;45.30;;;;;;5019966;28;20203;-76
2022/07/15 11:48:08;;;;;;;179.75;171.05;;;31.40;50.10;;;;;;5011800;28;20922;-76
2022/07/15 11:50:36;;;;;;;152.10;144.57;;;31.80;47.50;;;;;;4993820;28;20218;-77
2022/07/15 11:53:14;;;;;;;166.52;157.90;;;32.40;46.40;;;;;;4995627;28;20172;-77
2022/07/15 11:55:55;;;;;;;171.45;163.13;;;32.90;46.60;;;;;;4997114;28;20202;-77
2022/07/15 11:58:36;;;;;;;191.38;182.05;;;33.10;44.60;;;;;;5014002;28;20412;-77
2022/07/15 12:01:15;;;;;;;178.27;168.38;;;32.70;44.20;;;;;;4998018;28;20187;-77
2022/07/15 12:03:44;;;;;;;164.52;156.63;;;32.80;45.20;;;;;;5003341;28;20190;-75
2022/07/15 12:06:17;;;;;;;246.52;234.15;;;32.90;46.40;;;;;;4993266;28;20212;-76
2022/07/15 12:08:46;;;;;;;240.82;228.75;;;33.00;43.50;;;;;;4993714;28;20208;-76
2022/07/15 12:11:23;;;;;;;248.65;236.32;;;32.70;44.20;;;;;;5012436;28;20223;-76
2022/07/15 12:14:05;;;;;;;221.75;210.95;;;31.90;43.40;;;;;;5012510;28;20266;-76
2022/07/15 12:16:40;;;;;;;214.05;203.65;;;31.50;44.60;;;;;;5011507;28;20207;-76
2022/07/15 12:19:28;;;;;;;183.23;174.23;;;31.30;44.20;;;;;;5021253;28;20685;-76
2022/07/15 12:21:58;;;;;;;159.98;152.18;;;31.30;44.90;;;;;;5014427;28;20187;-76
2022/07/15 12:24:35;;;;;;;173.95;165.50;;;31.70;44.80;;;;;;5015155;28;20213;-76
2022/07/15 12:27:02;;;;;;;175.48;166.95;;;31.90;45.00;;;;;;5035776;28;20211;-77
2022/07/15 12:29:30;;;;;;;173.30;164.70;;;32.30;44.60;;;;;;5035524;28;20655;-76
2022/07/15 12:32:00;;;;;;;214.13;203.65;;;32.30;45.10;;;;;;5015871;28;20176;-74
2022/07/15 12:34:47;;;;;;;218.50;207.88;;;32.60;43.30;;;;;;5012961;28;20603;-75
2022/07/15 12:37:41;;;;;;;224.88;213.65;;;32.70;42.90;;;;;;5011007;28;20199;-75
2022/07/15 12:40:12;;;;;;;241.02;229.30;;;32.70;43.60;;;;;;5012258;28;20179;-76
2022/07/15 12:42:41;;;;;;;236.13;224.48;;;32.90;42.50;;;;;;5012565;28;20214;-76